Statsraad Lehmkuhl — LDRG — position and weather

sailwx.info

Track history (hours):
 
Tides and Currents Weather Stations Pressure Air Temp Water Temp Dewpoint Dewpoint Depression Visibility Wind Speed Wind Dir Waves Ship Positions

Statsraad Lehmkuhl (Norway)

Ship's website: http://www.lehmkuhl.no/eng/index.cfm

Last reported at 2019-Feb-11 14:01 UTC. Time now 2019-Feb-16 03:02 UTC.
Position N 25°17' W 022°29'.

Length 85 m; draft 5.2 m.

Type: Sailing vessel. MMSI: 258113000.

Date/timePositionNaut miles runAvg speedWind from/ knotsBaromVisibWave heightAir tempDewpointWater temp
2019-Feb-11 14:01N 25°17' W 022°29'0 5.8
2019-Feb-11 14:00N 25°17' W 022°29'28 5.1
2019-Feb-11 08:31N 25°34' W 022°04'0 4.4
2019-Feb-11 08:30N 25°34' W 022°04'31 5.8
2019-Feb-11 03:06N 25°52' W 021°35'1 6.0
2019-Feb-11 02:59N 25°52' W 021°35'12 6.3
2019-Feb-11 01:06N 25°58' W 021°23'5 6.6
2019-Feb-11 00:25N 25°60' W 021°19'3 6.2
2019-Feb-11 00:00N 26°01' W 021°16'3 5.8
2019-Feb-10 23:27N 26°02' W 021°13'2 5.5
2019-Feb-10 23:00N 26°04' W 021°10'12 6.2
2019-Feb-10 21:04N 26°09' W 020°58'3 6.2
2019-Feb-10 20:38N 26°10' W 020°56'1 5.7
2019-Feb-10 20:27N 26°11' W 020°55'3 6.2
2019-Feb-10 19:58N 26°12' W 020°52'18 6.9
2019-Feb-10 17:24N 26°18' W 020°33'5 6.6
2019-Feb-10 16:38N 26°19' W 020°28'1 7.4
2019-Feb-10 16:26N 26°19' W 020°26'3 7.8
2019-Feb-10 15:59N 26°20' W 020°22'4 8.5
2019-Feb-10 15:30N 26°22' W 020°18'9 8.1
2019-Feb-10 14:23N 26°27' W 020°09'235 5.6
2019-Feb-08 20:36N 28°19' W 016°17'1 9.9
2019-Feb-08 20:28N 28°20' W 016°17'4 9.5
2019-Feb-08 20:00N 28°25' W 016°16'3 5.9
2019-Feb-08 19:31N 28°27' W 016°15'0 0.8
2019-Feb-08 19:01N 28°28' W 016°15'0 0.0
2019-Feb-08 18:31N 28°28' W 016°15'0 0.0
2019-Feb-08 18:00N 28°28' W 016°15'0 0.0
2019-Feb-08 17:31N 28°28' W 016°15'0 0.0
2019-Feb-08 17:01N 28°28' W 016°15'0 0.0
2019-Feb-08 16:30N 28°28' W 016°15'0 0.0
2019-Feb-08 16:00N 28°28' W 016°15'0 0.0
2019-Feb-08 15:30N 28°28' W 016°15'0 0.0
2019-Feb-08 15:00N 28°28' W 016°15'0 0.0
2019-Feb-08 14:31N 28°28' W 016°15'0 0.0
2019-Feb-08 14:01N 28°28' W 016°15'0 0.0
2019-Feb-08 13:31N 28°28' W 016°15'0 0.0
2019-Feb-08 13:01N 28°28' W 016°15'0 0.0
2019-Feb-08 12:31N 28°28' W 016°15'0 0.0
2019-Feb-08 12:01N 28°28' W 016°15'0 0.0
2019-Feb-08 11:30N 28°28' W 016°15'0 0.0
2019-Feb-08 11:01N 28°28' W 016°15'0 0.0
2019-Feb-08 10:31N 28°28' W 016°15'0 0.0
2019-Feb-08 10:01N 28°28' W 016°15'0 0.0
2019-Feb-08 09:31N 28°28' W 016°15'1 1.1
2019-Feb-08 09:01N 28°27' W 016°15'4 7.1
2019-Feb-08 08:31N 28°29' W 016°11'1 2.3
2019-Feb-08 08:00N 28°30' W 016°11'0 0.0
2019-Feb-08 07:31N 28°30' W 016°11'0 0.0
2019-Feb-08 07:00N 28°30' W 016°11'0 0.0
2019-Feb-08 06:31N 28°30' W 016°11'0 0.0
2019-Feb-08 06:01N 28°30' W 016°11'0 0.0
2019-Feb-08 05:31N 28°30' W 016°11'0 0.0
2019-Feb-08 05:01N 28°30' W 016°11'0 0.0
2019-Feb-08 04:31N 28°30' W 016°11'0 0.0
2019-Feb-08 04:00N 28°30' W 016°11'0 0.0
2019-Feb-08 03:31N 28°30' W 016°11'0 0.0
2019-Feb-08 03:01N 28°30' W 016°11'0 0.0
2019-Feb-08 02:30N 28°30' W 016°11'0 0.0
2019-Feb-08 02:01N 28°30' W 016°11'0 0.0
2019-Feb-08 01:31N 28°30' W 016°11'0 0.0
2019-Feb-08 01:01N 28°30' W 016°11'0 0.0
2019-Feb-08 00:31N 28°30' W 016°11'0 0.0
2019-Feb-08 00:01N 28°30' W 016°11'0 0.0
2019-Feb-07 23:30N 28°30' W 016°11'0 0.0
2019-Feb-07 23:00N 28°30' W 016°11'0 0.0
2019-Feb-07 22:30N 28°30' W 016°11'0 0.0
2019-Feb-07 22:00N 28°30' W 016°11'0 0.0
2019-Feb-07 21:31N 28°30' W 016°11'0 0.0
2019-Feb-07 21:01N 28°30' W 016°11'0 0.0
2019-Feb-07 20:30N 28°30' W 016°11'0 0.0
2019-Feb-07 20:01N 28°30' W 016°11'0 0.0
2019-Feb-07 19:31N 28°30' W 016°11'0 0.0
2019-Feb-07 19:01N 28°30' W 016°11'0 0.0
2019-Feb-07 18:30N 28°30' W 016°11'0 0.0
2019-Feb-07 18:01N 28°30' W 016°11'0 0.0
2019-Feb-07 17:31N 28°30' W 016°11'0 0.0
2019-Feb-07 17:01N 28°30' W 016°11'0 0.0
2019-Feb-07 16:31N 28°30' W 016°11'0 0.0
2019-Feb-07 16:01N 28°30' W 016°11'0 0.0
2019-Feb-07 15:31N 28°30' W 016°11'0 0.0
2019-Feb-07 15:00N 28°30' W 016°11'0 0.0
2019-Feb-07 14:30N 28°30' W 016°11'0 0.0
2019-Feb-07 14:01N 28°30' W 016°11'0 0.0
2019-Feb-07 13:31N 28°30' W 016°11'0 0.0
2019-Feb-07 13:01N 28°30' W 016°11'0 0.0
2019-Feb-07 12:30N 28°30' W 016°11'0 0.0
2019-Feb-07 12:01N 28°30' W 016°11'0 0.0
2019-Feb-07 11:30N 28°30' W 016°11'0 0.0
2019-Feb-07 11:01N 28°30' W 016°11'0 0.0
2019-Feb-07 10:31N 28°30' W 016°11'0 0.0
2019-Feb-07 10:01N 28°30' W 016°11'0 0.0
2019-Feb-07 09:31N 28°30' W 016°11'0 0.1
2019-Feb-07 09:01N 28°30' W 016°11'2 4.7
2019-Feb-07 08:30N 28°30' W 016°08'1 2.0
2019-Feb-07 08:00N 28°29' W 016°08'2 4.4
2019-Feb-07 07:31N 28°30' W 016°06'3 6.4
2019-Feb-07 07:01N 28°32' W 016°03'  
Track history (hours):
 
Tides and Currents Weather Stations Pressure Air Temp Water Temp Dewpoint Dewpoint Depression Visibility Wind Speed Wind Dir Waves Ship Positions

Statsraad Lehmkuhl (Norway)

Ship's website: http://www.lehmkuhl.no/eng/index.cfm

Last reported at 2019-Feb-11 14:01 UTC. Time now 2019-Feb-16 03:02 UTC.
Position N 25°17' W 022°29'.

Length 85 m; draft 5.2 m.

Type: Sailing vessel. MMSI: 258113000.

Date/timePositionNaut miles runAvg speedWind from/ knotsBaromVisibWave heightAir tempDewpointWater temp
2019-Feb-11 14:01N 25°17' W 022°29'0 5.8
2019-Feb-11 14:00N 25°17' W 022°29'28 5.1
2019-Feb-11 08:31N 25°34' W 022°04'0 4.4
2019-Feb-11 08:30N 25°34' W 022°04'31 5.8
2019-Feb-11 03:06N 25°52' W 021°35'1 6.0
2019-Feb-11 02:59N 25°52' W 021°35'12 6.3
2019-Feb-11 01:06N 25°58' W 021°23'5 6.6
2019-Feb-11 00:25N 25°60' W 021°19'3 6.2
2019-Feb-11 00:00N 26°01' W 021°16'3 5.8
2019-Feb-10 23:27N 26°02' W 021°13'2 5.5
2019-Feb-10 23:00N 26°04' W 021°10'12 6.2
2019-Feb-10 21:04N 26°09' W 020°58'3 6.2
2019-Feb-10 20:38N 26°10' W 020°56'1 5.7
2019-Feb-10 20:27N 26°11' W 020°55'3 6.2
2019-Feb-10 19:58N 26°12' W 020°52'18 6.9
2019-Feb-10 17:24N 26°18' W 020°33'5 6.6
2019-Feb-10 16:38N 26°19' W 020°28'1 7.4
2019-Feb-10 16:26N 26°19' W 020°26'3 7.8
2019-Feb-10 15:59N 26°20' W 020°22'4 8.5
2019-Feb-10 15:30N 26°22' W 020°18'9 8.1
2019-Feb-10 14:23N 26°27' W 020°09'235 5.6
2019-Feb-08 20:36N 28°19' W 016°17'1 9.9
2019-Feb-08 20:28N 28°20' W 016°17'4 9.5
2019-Feb-08 20:00N 28°25' W 016°16'3 5.9
2019-Feb-08 19:31N 28°27' W 016°15'0 0.8
2019-Feb-08 19:01N 28°28' W 016°15'0 0.0
2019-Feb-08 18:31N 28°28' W 016°15'0 0.0
2019-Feb-08 18:00N 28°28' W 016°15'0 0.0
2019-Feb-08 17:31N 28°28' W 016°15'0 0.0
2019-Feb-08 17:01N 28°28' W 016°15'0 0.0
2019-Feb-08 16:30N 28°28' W 016°15'0 0.0
2019-Feb-08 16:00N 28°28' W 016°15'0 0.0
2019-Feb-08 15:30N 28°28' W 016°15'0 0.0
2019-Feb-08 15:00N 28°28' W 016°15'0 0.0
2019-Feb-08 14:31N 28°28' W 016°15'0 0.0
2019-Feb-08 14:01N 28°28' W 016°15'0 0.0
2019-Feb-08 13:31N 28°28' W 016°15'0 0.0
2019-Feb-08 13:01N 28°28' W 016°15'0 0.0
2019-Feb-08 12:31N 28°28' W 016°15'0 0.0
2019-Feb-08 12:01N 28°28' W 016°15'0 0.0
2019-Feb-08 11:30N 28°28' W 016°15'0 0.0
2019-Feb-08 11:01N 28°28' W 016°15'0 0.0
2019-Feb-08 10:31N 28°28' W 016°15'0 0.0
2019-Feb-08 10:01N 28°28' W 016°15'0 0.0
2019-Feb-08 09:31N 28°28' W 016°15'1 1.1
2019-Feb-08 09:01N 28°27' W 016°15'4 7.1
2019-Feb-08 08:31N 28°29' W 016°11'1 2.3
2019-Feb-08 08:00N 28°30' W 016°11'0 0.0
2019-Feb-08 07:31N 28°30' W 016°11'0 0.0
2019-Feb-08 07:00N 28°30' W 016°11'0 0.0
2019-Feb-08 06:31N 28°30' W 016°11'0 0.0
2019-Feb-08 06:01N 28°30' W 016°11'0 0.0
2019-Feb-08 05:31N 28°30' W 016°11'0 0.0
2019-Feb-08 05:01N 28°30' W 016°11'0 0.0
2019-Feb-08 04:31N 28°30' W 016°11'0 0.0
2019-Feb-08 04:00N 28°30' W 016°11'0 0.0
2019-Feb-08 03:31N 28°30' W 016°11'0 0.0
2019-Feb-08 03:01N 28°30' W 016°11'0 0.0
2019-Feb-08 02:30N 28°30' W 016°11'0 0.0
2019-Feb-08 02:01N 28°30' W 016°11'0 0.0
2019-Feb-08 01:31N 28°30' W 016°11'0 0.0
2019-Feb-08 01:01N 28°30' W 016°11'0 0.0
2019-Feb-08 00:31N 28°30' W 016°11'0 0.0
2019-Feb-08 00:01N 28°30' W 016°11'0 0.0
2019-Feb-07 23:30N 28°30' W 016°11'0 0.0
2019-Feb-07 23:00N 28°30' W 016°11'0 0.0
2019-Feb-07 22:30N 28°30' W 016°11'0 0.0
2019-Feb-07 22:00N 28°30' W 016°11'0 0.0
2019-Feb-07 21:31N 28°30' W 016°11'0 0.0
2019-Feb-07 21:01N 28°30' W 016°11'0 0.0
2019-Feb-07 20:30N 28°30' W 016°11'0 0.0
2019-Feb-07 20:01N 28°30' W 016°11'0 0.0
2019-Feb-07 19:31N 28°30' W 016°11'0 0.0
2019-Feb-07 19:01N 28°30' W 016°11'0 0.0
2019-Feb-07 18:30N 28°30' W 016°11'0 0.0
2019-Feb-07 18:01N 28°30' W 016°11'0 0.0
2019-Feb-07 17:31N 28°30' W 016°11'0 0.0
2019-Feb-07 17:01N 28°30' W 016°11'0 0.0
2019-Feb-07 16:31N 28°30' W 016°11'0 0.0
2019-Feb-07 16:01N 28°30' W 016°11'0 0.0
2019-Feb-07 15:31N 28°30' W 016°11'0 0.0
2019-Feb-07 15:00N 28°30' W 016°11'0 0.0
2019-Feb-07 14:30N 28°30' W 016°11'0 0.0
2019-Feb-07 14:01N 28°30' W 016°11'0 0.0
2019-Feb-07 13:31N 28°30' W 016°11'0 0.0
2019-Feb-07 13:01N 28°30' W 016°11'0 0.0
2019-Feb-07 12:30N 28°30' W 016°11'0 0.0
2019-Feb-07 12:01N 28°30' W 016°11'0 0.0
2019-Feb-07 11:30N 28°30' W 016°11'0 0.0
2019-Feb-07 11:01N 28°30' W 016°11'0 0.0
2019-Feb-07 10:31N 28°30' W 016°11'0 0.0
2019-Feb-07 10:01N 28°30' W 016°11'0 0.0
2019-Feb-07 09:31N 28°30' W 016°11'0 0.1
2019-Feb-07 09:01N 28°30' W 016°11'2 4.7
2019-Feb-07 08:30N 28°30' W 016°08'1 2.0
2019-Feb-07 08:00N 28°29' W 016°08'2 4.4
2019-Feb-07 07:31N 28°30' W 016°06'3 6.4
2019-Feb-07 07:01N 28°32' W 016°03'  

Dump ship's entire track history